Decoded Metar for UKLL (LVOV in UKRAINE) (IATA:LWO) | Meteo·Mobile Aviation Weather
aviador You're here:

UKLL Decoded Metar

LVOV in UKRAINE
Report Time2019-03-20 23:00:00
UTC Time2019-03-20 23:34:00
Flight Rules mvfr MVFR
WindCalm
Visibility7000 m
Phenomena:N/A
Clouds:N/A
Expected CloudBase > 800 ft AGL from Temp-Dew spread
CeilingNone
Temp-2°C (ISA -15)
Dew Point-4°C (86% RH)
AAT-4.5°C
QNH1033 hPa
Density Alt-1,368 ft
Elevation1,066 ft
Report Wrong Elevation
Raw Report
METAR UKLL 202300Z 00000MPS 7000 NSC M02/M04 Q1033 R13/D NOSIG=

Extra information for UKLL:More info

Metar Taf Metar & Taf Last 4 Metars F.Rules Stats Wind Profile Meteogram Temp Stats Airport Information Weather charts Add Link Nearby VenuesMetar ALERT Operation Metar Decoded Social comments